Time;durP1;ratioP1;P1;durP2;ratioP2;P2;SDS_P1;SDS_P2;PMS_P1;PMS_P2;Temp;Humidity;BMP_temperature;BMP_pressure;BME280_temperature;BME280_humidity;BME280_pressure;Samples;Min_cycle;Max_cycle;Signal;HPM_P1;HPM_P2
2022/03/07 00:02:26;;;;;;;16.80;4.75;;;23.40;99.90;;;;;;5093158;28;20453;-89
2022/03/07 00:04:53;;;;;;;18.58;4.57;;;23.40;99.90;;;;;;5093895;28;20429;-90
2022/03/07 00:07:20;;;;;;;16.27;4.75;;;23.40;99.90;;;;;;5092190;28;20388;-91
2022/03/07 00:09:47;;;;;;;17.90;3.85;;;23.50;99.90;;;;;;5093325;28;20419;-89
2022/03/07 00:12:14;;;;;;;14.75;3.78;;;23.50;99.90;;;;;;5092541;28;20392;-91
2022/03/07 00:14:41;;;;;;;15.13;3.55;;;23.50;99.90;;;;;;5093318;28;20406;-91
2022/03/07 00:17:08;;;;;;;13.50;3.40;;;23.50;99.90;;;;;;5094413;28;20376;-90
2022/03/07 00:19:35;;;;;;;14.47;3.50;;;23.50;99.90;;;;;;5096699;28;20890;-92
2022/03/07 00:22:02;;;;;;;11.93;2.92;;;23.50;99.90;;;;;;5096594;28;20380;-90
2022/03/07 00:24:29;;;;;;;13.70;3.10;;;23.50;99.90;;;;;;5094386;28;20430;-88
2022/03/07 00:26:56;;;;;;;11.68;3.00;;;23.40;99.90;;;;;;5098934;28;20372;-89
2022/03/07 00:29:23;;;;;;;9.45;2.60;;;23.40;99.90;;;;;;5093710;28;20399;-89
2022/03/07 00:31:51;;;;;;;8.38;2.60;;;23.30;99.90;;;;;;5093867;28;20883;-92
2022/03/07 00:34:18;;;;;;;15.40;3.40;;;23.00;99.90;;;;;;5094571;28;20381;-92
2022/03/07 00:36:45;;;;;;;9.68;3.15;;;22.80;99.90;;;;;;5091657;28;20952;-92
2022/03/07 00:39:12;;;;;;;11.10;3.53;;;22.90;99.90;;;;;;5074591;28;20551;-91
2022/03/07 00:41:39;;;;;;;12.83;3.90;;;22.80;99.90;;;;;;5092194;28;20376;-90
2022/03/07 00:44:06;;;;;;;33.57;4.63;;;22.90;99.90;;;;;;5091323;28;20426;-91
2022/03/07 00:46:35;;;;;;;26.63;3.90;;;22.90;99.90;;;;;;5073964;28;20480;-88
2022/03/07 00:49:02;;;;;;;26.30;3.87;;;22.80;99.90;;;;;;5094107;28;20744;-86
2022/03/07 00:51:29;;;;;;;13.02;3.45;;;22.60;99.90;;;;;;5091898;28;20408;-90
2022/03/07 00:53:56;;;;;;;12.20;4.60;;;22.30;99.90;;;;;;5075395;28;20752;-87
2022/03/07 00:56:23;;;;;;;10.37;3.90;;;22.30;99.90;;;;;;5094845;28;21014;-89
2022/03/07 00:58:50;;;;;;;15.77;6.10;;;22.30;99.90;;;;;;5073423;28;20377;-89
2022/03/07 01:01:17;;;;;;;13.75;6.28;;;22.30;99.90;;;;;;5090925;28;20383;-90
2022/03/07 01:03:44;;;;;;;16.88;6.20;;;22.40;99.90;;;;;;5090145;28;20382;-90
2022/03/07 01:06:11;;;;;;;14.70;7.38;;;22.50;99.90;;;;;;5091125;28;20385;-88
2022/03/07 01:08:38;;;;;;;19.05;6.72;;;22.60;99.90;;;;;;5091327;28;20383;-90
2022/03/07 01:11:07;;;;;;;14.77;6.57;;;22.80;99.90;;;;;;5089796;28;20423;-89
2022/03/07 01:13:34;;;;;;;19.42;6.60;;;22.90;99.90;;;;;;5090570;28;20878;-89
2022/03/07 01:16:01;;;;;;;18.80;5.45;;;23.00;99.90;;;;;;5092353;28;20463;-90
2022/03/07 01:18:28;;;;;;;17.20;5.50;;;23.10;99.90;;;;;;5092057;28;20464;-88
2022/03/07 01:20:54;;;;;;;17.08;5.35;;;23.10;99.90;;;;;;5092622;28;20379;-88
2022/03/07 01:23:21;;;;;;;16.27;4.70;;;23.10;99.90;;;;;;5091767;28;20369;-89
2022/03/07 01:25:48;;;;;;;15.88;4.90;;;23.20;99.90;;;;;;5092248;28;20373;-89
2022/03/07 01:28:15;;;;;;;17.52;4.50;;;23.30;99.90;;;;;;5089960;28;20836;-90
2022/03/07 01:30:42;;;;;;;18.50;5.97;;;23.40;99.90;;;;;;5091776;28;20548;-89
2022/03/07 01:33:09;;;;;;;21.30;5.20;;;23.50;99.90;;;;;;5090020;28;20424;-90
2022/03/07 01:35:36;;;;;;;15.93;5.87;;;23.50;99.90;;;;;;5089992;28;20373;-90
2022/03/07 01:38:04;;;;;;;18.15;4.45;;;23.70;99.90;;;;;;5089950;28;20444;-90
2022/03/07 01:40:31;;;;;;;17.67;5.20;;;23.70;99.90;;;;;;5090948;28;20844;-90
2022/03/07 01:42:58;;;;;;;17.63;4.80;;;23.80;99.90;;;;;;5089456;28;20381;-92
2022/03/07 01:45:25;;;;;;;13.65;3.85;;;23.90;99.90;;;;;;5090640;28;20379;-90
2022/03/07 01:47:52;;;;;;;14.00;3.80;;;23.90;99.90;;;;;;5090789;28;20376;-90
2022/03/07 01:50:20;;;;;;;15.98;3.72;;;23.80;99.90;;;;;;5090712;28;20445;-90
2022/03/07 01:52:50;;;;;;;17.35;4.47;;;23.80;99.90;;;;;;5090505;28;20384;-89
2022/03/07 01:55:18;;;;;;;15.63;3.78;;;23.80;99.90;;;;;;5090241;28;20463;-89
2022/03/07 01:57:46;;;;;;;15.13;3.90;;;23.70;99.90;;;;;;5092147;28;20840;-90
2022/03/07 02:00:19;;;;;;;13.32;4.07;;;23.70;99.90;;;;;;5090565;28;20391;-89
2022/03/07 02:02:47;;;;;;;18.63;4.50;;;23.70;99.90;;;;;;5094318;28;20433;-90
2022/03/07 02:05:16;;;;;;;15.27;3.95;;;23.70;99.90;;;;;;5093094;28;20360;-89
2022/03/07 02:07:43;;;;;;;15.68;4.25;;;23.60;99.90;;;;;;5093675;28;20752;-90
2022/03/07 02:10:11;;;;;;;17.85;4.10;;;23.60;99.90;;;;;;5092263;28;21013;-87
2022/03/07 02:12:39;;;;;;;15.43;4.10;;;23.60;99.90;;;;;;5091639;28;20848;-89
2022/03/07 02:15:07;;;;;;;15.13;4.90;;;23.60;99.90;;;;;;5090864;28;20372;-90
2022/03/07 02:17:35;;;;;;;17.40;5.00;;;23.70;99.90;;;;;;5092930;28;20379;-87
2022/03/07 02:20:03;;;;;;;18.98;5.90;;;23.80;99.90;;;;;;5093307;28;20379;-90
2022/03/07 02:22:30;;;;;;;20.90;6.13;;;23.80;99.90;;;;;;5090931;28;20381;-87
2022/03/07 02:24:57;;;;;;;21.80;5.35;;;23.90;99.90;;;;;;5092719;28;20848;-90
2022/03/07 02:27:24;;;;;;;10.93;3.97;;;23.90;99.90;;;;;;5090963;28;20454;-87
2022/03/07 02:29:54;;;;;;;9.27;2.88;;;23.80;99.90;;;;;;5099510;28;20369;-91
2022/03/07 02:32:24;;;;;;;9.93;2.70;;;23.70;99.90;;;;;;5093305;28;20467;-88
2022/03/07 02:37:57;;;;;;;3.70;1.70;;;23.60;99.90;;;;;;5030924;28;20473;-90
2022/03/07 02:40:24;;;;;;;4.85;1.90;;;23.70;99.90;;;;;;5030462;28;20390;-88
2022/03/07 02:42:53;;;;;;;4.70;1.92;;;23.70;99.90;;;;;;5029104;28;20792;-89
2022/03/07 02:45:20;;;;;;;3.80;1.77;;;23.90;99.90;;;;;;5016159;28;20433;-89
2022/03/07 02:47:47;;;;;;;5.47;1.90;;;24.20;99.90;;;;;;5031553;28;20373;-89
2022/03/07 02:50:18;;;;;;;5.82;2.20;;;24.20;99.90;;;;;;5014856;28;20480;-88
2022/03/07 02:52:45;;;;;;;8.80;3.00;;;24.30;99.90;;;;;;5011264;28;20425;-87
2022/03/07 02:55:12;;;;;;;4.80;2.13;;;24.20;99.90;;;;;;5028539;28;20429;-88
2022/03/07 02:57:39;;;;;;;11.13;2.75;;;24.20;99.90;;;;;;5012564;28;20384;-90
2022/03/07 03:00:07;;;;;;;7.93;2.90;;;24.30;99.90;;;;;;5012913;28;20858;-88
2022/03/07 03:02:34;;;;;;;8.95;3.40;;;24.30;99.90;;;;;;5029638;28;20480;-89
2022/03/07 03:05:01;;;;;;;8.73;3.22;;;24.30;99.90;;;;;;5031218;28;20381;-91
2022/03/07 03:07:28;;;;;;;11.20;3.70;;;24.20;99.90;;;;;;5035094;28;20425;-91
2022/03/07 03:09:55;;;;;;;14.68;4.65;;;24.00;99.90;;;;;;5017043;28;20374;-91
2022/03/07 03:12:24;;;;;;;12.50;4.05;;;23.90;99.90;;;;;;5017086;28;20519;-90
2022/03/07 03:14:52;;;;;;;13.75;3.78;;;24.00;99.90;;;;;;5015236;28;20369;-90
2022/03/07 03:17:19;;;;;;;11.70;4.47;;;23.90;99.90;;;;;;5028245;28;20399;-90
2022/03/07 03:19:45;;;;;;;10.98;3.92;;;23.90;99.90;;;;;;5013133;28;20381;-91
2022/03/07 03:22:13;;;;;;;8.82;3.63;;;23.90;99.90;;;;;;5011624;28;20560;-92
2022/03/07 03:24:40;;;;;;;9.95;3.60;;;23.80;99.90;;;;;;5011906;28;20382;-92
2022/03/07 03:27:07;;;;;;;8.55;3.03;;;23.90;99.90;;;;;;5023947;28;20376;-92
2022/03/07 03:29:34;;;;;;;10.40;2.88;;;24.00;99.90;;;;;;5089304;28;20389;-92
2022/03/07 03:32:01;;;;;;;8.43;2.58;;;24.10;99.90;;;;;;5090234;28;20491;-94
2022/03/07 03:34:27;;;;;;;7.90;2.20;;;24.30;99.90;;;;;;5089189;28;20372;-90
2022/03/07 03:36:54;;;;;;;7.93;2.13;;;24.40;99.90;;;;;;5090036;28;20380;-94
2022/03/07 03:39:21;;;;;;;6.30;1.90;;;24.70;99.90;;;;;;5090399;28;20782;-92
2022/03/07 03:41:49;;;;;;;4.57;1.63;;;24.90;99.90;;;;;;5088986;28;20376;-90
2022/03/07 03:44:15;;;;;;;4.03;1.80;;;25.30;99.90;;;;;;5090810;28;20419;-92
2022/03/07 03:46:43;;;;;;;5.40;1.63;;;25.80;99.90;;;;;;5092177;28;20522;-91
2022/03/07 03:49:10;;;;;;;6.10;1.80;;;27.00;99.90;;;;;;5083538;28;20379;-91
2022/03/07 03:51:37;;;;;;;3.83;1.50;;;27.70;99.90;;;;;;5090620;28;20396;-93
2022/03/07 03:54:04;;;;;;;4.38;1.45;;;28.60;99.90;;;;;;5088886;28;20407;-91
2022/03/07 03:56:31;;;;;;;4.20;1.27;;;28.90;99.90;;;;;;5096268;28;20396;-90
2022/03/07 03:58:58;;;;;;;2.57;1.20;;;28.90;99.90;;;;;;5101651;28;20379;-89
2022/03/07 04:01:24;;;;;;;5.50;1.80;;;28.20;99.90;;;;;;5092001;28;20423;-89
2022/03/07 04:03:51;;;;;;;4.85;1.92;;;27.50;99.90;;;;;;5087699;28;20369;-89
2022/03/07 04:06:18;;;;;;;4.95;1.70;;;26.80;99.90;;;;;;5088082;28;20775;-90
2022/03/07 04:09:08;;;;;;;4.40;1.60;;;26.40;99.90;;;;;;5089142;28;20372;-89
2022/03/07 04:11:35;;;;;;;4.90;1.90;;;26.20;99.90;;;;;;5088732;28;20443;-88
2022/03/07 04:14:02;;;;;;;6.03;1.73;;;26.10;99.90;;;;;;5088472;28;20369;-88
2022/03/07 04:16:29;;;;;;;6.60;1.70;;;26.00;99.90;;;;;;5088762;28;20431;-88
2022/03/07 04:18:56;;;;;;;7.53;2.47;;;25.90;99.90;;;;;;5087176;28;20860;-88
2022/03/07 04:21:29;;;;;;;8.60;2.40;;;25.80;99.90;;;;;;5086777;28;20429;-88
2022/03/07 04:23:57;;;;;;;9.38;2.40;;;25.70;99.90;;;;;;5088737;28;20372;-91
2022/03/07 04:26:24;;;;;;;7.22;2.20;;;25.50;99.90;;;;;;5091688;28;20930;-89
2022/03/07 04:28:51;;;;;;;7.20;2.10;;;25.40;99.90;;;;;;5092102;28;20368;-88
2022/03/07 04:31:18;;;;;;;9.30;2.33;;;25.10;99.90;;;;;;5091592;28;20469;-87
2022/03/07 04:33:45;;;;;;;10.33;2.60;;;25.10;99.90;;;;;;5093145;28;20415;-87
2022/03/07 04:36:13;;;;;;;6.70;2.07;;;25.20;99.90;;;;;;5093638;28;20380;-88
2022/03/07 04:38:40;;;;;;;6.60;2.00;;;25.60;99.90;;;;;;5092593;28;20400;-85
2022/03/07 04:41:07;;;;;;;6.53;2.10;;;26.00;99.90;;;;;;5092256;28;20376;-83
2022/03/07 04:43:34;;;;;;;6.35;2.03;;;26.40;99.90;;;;;;5092252;28;20369;-85
2022/03/07 04:46:01;;;;;;;7.00;1.90;;;26.60;99.90;;;;;;5092895;28;20461;-88
2022/03/07 04:48:28;;;;;;;5.28;2.10;;;26.60;99.90;;;;;;5092175;28;20417;-85
2022/03/07 04:50:55;;;;;;;8.57;1.92;;;26.20;99.90;;;;;;5092469;28;20479;-87
2022/03/07 04:53:23;;;;;;;5.82;2.10;;;26.00;99.90;;;;;;5091806;28;20396;-89
2022/03/07 04:55:50;;;;;;;7.65;2.45;;;25.50;99.90;;;;;;5091964;28;20383;-86
2022/03/07 04:58:17;;;;;;;9.45;2.78;;;25.10;99.90;;;;;;5092119;28;20387;-85
2022/03/07 05:00:43;;;;;;;10.43;2.85;;;24.90;99.90;;;;;;5090683;28;20376;-84
2022/03/07 05:03:11;;;;;;;12.10;3.78;;;24.70;99.90;;;;;;5092455;28;20380;-87
2022/03/07 05:05:38;;;;;;;11.10;3.42;;;24.70;99.90;;;;;;5091306;28;20377;-87
2022/03/07 05:08:06;;;;;;;13.15;3.10;;;24.70;99.90;;;;;;5092723;28;20372;-86
2022/03/07 05:10:33;;;;;;;9.50;2.80;;;24.80;99.90;;;;;;5091729;28;20461;-86
2022/03/07 05:13:00;;;;;;;10.40;2.70;;;25.30;99.90;;;;;;5091847;28;20406;-91
2022/03/07 05:15:27;;;;;;;12.27;2.63;;;26.00;99.90;;;;;;5091867;28;20380;-85
2022/03/07 05:17:54;;;;;;;8.50;2.20;;;26.70;99.90;;;;;;5091561;28;20384;-89
2022/03/07 05:20:23;;;;;;;8.68;2.53;;;27.20;99.90;;;;;;5091449;28;20379;-86
2022/03/07 05:22:50;;;;;;;11.32;2.60;;;27.20;99.90;;;;;;5091500;28;20383;-88
2022/03/07 05:25:18;;;;;;;7.78;2.50;;;27.20;99.90;;;;;;5091602;28;20376;-86
2022/03/07 05:27:45;;;;;;;9.13;2.47;;;26.90;99.90;;;;;;5091293;28;20378;-87
2022/03/07 05:30:16;;;;;;;8.77;2.65;;;26.60;99.90;;;;;;5091860;28;20414;-89
2022/03/07 05:32:47;;;;;;;11.98;2.65;;;26.20;99.90;;;;;;5090841;28;20442;-87
2022/03/07 05:35:15;;;;;;;11.65;2.70;;;26.10;99.90;;;;;;5092618;28;20372;-89
2022/03/07 05:37:42;;;;;;;14.85;2.70;;;26.10;99.90;;;;;;5089846;28;20376;-87
2022/03/07 05:40:10;;;;;;;13.25;3.13;;;26.10;99.90;;;;;;5089997;28;20381;-86
2022/03/07 05:42:38;;;;;;;14.02;3.00;;;26.10;99.90;;;;;;5090815;28;20398;-87
2022/03/07 05:45:08;;;;;;;28.15;4.90;;;26.00;99.90;;;;;;5085832;28;20380;-91
2022/03/07 05:47:35;;;;;;;18.75;4.10;;;25.60;99.90;;;;;;5091341;28;20373;-90
2022/03/07 05:50:03;;;;;;;18.23;3.95;;;25.00;99.90;;;;;;5091924;28;20380;-90
2022/03/07 05:52:31;;;;;;;22.75;4.70;;;24.50;99.90;;;;;;5096068;28;20376;-91
2022/03/07 05:55:00;;;;;;;26.83;5.20;;;24.30;99.90;;;;;;5091997;28;20452;-94
2022/03/07 05:57:27;;;;;;;23.55;5.80;;;24.30;99.90;;;;;;5095721;28;20395;-87
2022/03/07 05:59:54;;;;;;;30.07;6.97;;;24.30;99.90;;;;;;5094136;28;20452;-89
2022/03/07 06:02:21;;;;;;;19.90;6.00;;;24.30;99.90;;;;;;5091717;28;20368;-90
2022/03/07 06:04:48;;;;;;;15.25;5.70;;;24.40;99.90;;;;;;5090947;28;20364;-89
2022/03/07 06:07:18;;;;;;;17.75;5.85;;;24.50;99.90;;;;;;5091598;28;20427;-89
2022/03/07 06:09:45;;;;;;;20.70;5.20;;;24.50;99.90;;;;;;5093551;28;20377;-95
2022/03/07 06:12:12;;;;;;;22.95;5.68;;;24.50;99.90;;;;;;5092318;28;20544;-88
2022/03/07 06:14:39;;;;;;;22.25;5.60;;;24.40;99.90;;;;;;5092303;28;20368;-94
2022/03/07 06:17:08;;;;;;;24.33;4.78;;;24.40;99.90;;;;;;5089892;28;20387;-89
2022/03/07 06:19:35;;;;;;;22.70;4.75;;;24.40;99.90;;;;;;5093147;28;20455;-93
2022/03/07 06:22:02;;;;;;;19.67;4.63;;;24.40;99.90;;;;;;5093112;28;20425;-92
2022/03/07 06:24:31;;;;;;;17.65;4.13;;;24.40;99.90;;;;;;5092642;28;20504;-95
2022/03/07 06:26:58;;;;;;;17.48;4.10;;;24.30;99.90;;;;;;5094004;28;20455;-90
2022/03/07 06:29:25;;;;;;;8.50;2.20;;;24.30;99.90;;;;;;5090175;28;20759;-89
2022/03/07 06:31:52;;;;;;;8.02;2.20;;;24.30;99.90;;;;;;5092362;28;20526;-89
2022/03/07 06:34:19;;;;;;;5.68;1.83;;;24.20;99.90;;;;;;5091809;28;20465;-91
2022/03/07 06:36:46;;;;;;;6.38;1.90;;;24.10;99.90;;;;;;5094149;28;20384;-87
2022/03/07 06:39:13;;;;;;;4.82;1.52;;;24.00;99.90;;;;;;5094969;28;20369;-88
2022/03/07 06:41:40;;;;;;;5.80;1.48;;;23.90;99.90;;;;;;5098256;28;20387;-96
2022/03/07 06:44:06;;;;;;;4.30;1.30;;;23.70;99.90;;;;;;5099922;28;20375;-88
2022/03/07 06:46:33;;;;;;;3.80;1.20;;;23.50;99.90;;;;;;5096042;28;20381;-89
2022/03/07 06:49:03;;;;;;;3.53;1.20;;;23.50;99.90;;;;;;5094248;28;20534;-94
2022/03/07 06:51:30;;;;;;;4.60;1.20;;;23.30;99.90;;;;;;5092997;28;20403;-90
2022/03/07 06:53:57;;;;;;;3.75;1.38;;;23.20;99.90;;;;;;5090700;28;20400;-90
2022/03/07 06:56:26;;;;;;;6.72;1.50;;;23.10;99.90;;;;;;5093129;28;20456;-93
2022/03/07 06:58:53;;;;;;;4.68;1.23;;;23.00;99.90;;;;;;5092200;28;20373;-90
2022/03/07 07:01:20;;;;;;;5.80;1.60;;;22.90;99.90;;;;;;5093646;28;20377;-94
2022/03/07 07:03:47;;;;;;;3.70;1.67;;;22.80;99.90;;;;;;5096461;28;20502;-91
2022/03/07 07:06:15;;;;;;;3.45;1.60;;;22.70;99.90;;;;;;5094751;28;20404;-88
2022/03/07 07:08:42;;;;;;;5.13;1.75;;;22.70;99.90;;;;;;5112580;28;20380;-86
2022/03/07 07:11:09;;;;;;;3.92;1.70;;;22.70;99.90;;;;;;5110090;28;20388;-87
2022/03/07 07:13:36;;;;;;;6.20;1.90;;;22.60;99.90;;;;;;5093842;28;20395;-95
2022/03/07 07:16:03;;;;;;;5.43;1.90;;;22.60;99.90;;;;;;5092468;28;20364;-89
2022/03/07 07:18:30;;;;;;;5.43;1.90;;;22.60;99.90;;;;;;5091944;28;20740;-91
2022/03/07 07:20:57;;;;;;;7.15;2.28;;;22.60;99.90;;;;;;5092419;28;20377;-87
2022/03/07 07:23:24;;;;;;;7.63;2.17;;;22.60;99.90;;;;;;5093687;28;20748;-91
2022/03/07 07:25:51;;;;;;;4.90;2.20;;;22.60;99.90;;;;;;5092961;28;20453;-93
2022/03/07 07:28:18;;;;;;;9.07;2.80;;;22.60;99.90;;;;;;5092298;28;20440;-91
2022/03/07 07:30:46;;;;;;;11.73;3.70;;;22.60;99.90;;;;;;5091719;28;20396;-91
2022/03/07 07:33:13;;;;;;;11.40;3.88;;;22.60;99.90;;;;;;5091760;28;20360;-88
2022/03/07 07:35:40;;;;;;;12.87;3.73;;;22.60;99.90;;;;;;5091367;28;20428;-90
2022/03/07 07:38:07;;;;;;;12.50;3.70;;;22.60;99.90;;;;;;5092379;28;20369;-93
2022/03/07 07:40:35;;;;;;;11.52;4.10;;;22.60;99.90;;;;;;5094954;28;20383;-88
2022/03/07 07:43:03;;;;;;;14.18;4.60;;;22.60;99.90;;;;;;5092425;28;20848;-86
2022/03/07 07:45:30;;;;;;;16.45;4.97;;;22.60;99.90;;;;;;5093181;28;20376;-88
2022/03/07 07:48:00;;;;;;;29.08;7.70;;;22.60;99.90;;;;;;5092793;28;20724;-89
2022/03/07 07:50:28;;;;;;;47.60;10.25;;;22.70;99.90;;;;;;5091579;28;20406;-87
2022/03/07 07:52:56;;;;;;;47.03;9.40;;;22.80;99.90;;;;;;5093076;28;20472;-90
2022/03/07 07:55:24;;;;;;;42.00;7.97;;;22.90;99.90;;;;;;5091987;28;20461;-87
2022/03/07 07:57:52;;;;;;;36.75;7.50;;;22.00;99.90;;;;;;5096085;28;20380;-90
2022/03/07 08:00:20;;;;;;;39.38;6.50;;;23.00;99.90;;;;;;5095793;28;20421;-88
2022/03/07 08:02:52;;;;;;;29.75;6.40;;;23.00;99.90;;;;;;5104721;28;20384;-85
2022/03/07 08:05:22;;;;;;;26.63;5.20;;;22.90;99.90;;;;;;5102555;28;20376;-86
2022/03/07 08:07:50;;;;;;;25.73;5.88;;;22.80;99.90;;;;;;5093724;28;20385;-88
2022/03/07 08:10:18;;;;;;;23.58;5.25;;;22.80;99.90;;;;;;5092484;28;20372;-92
2022/03/07 08:12:46;;;;;;;19.17;4.72;;;22.70;99.90;;;;;;5092494;28;20404;-88
2022/03/07 08:15:13;;;;;;;22.38;4.95;;;22.60;99.90;;;;;;5091097;28;20376;-89
2022/03/07 08:17:46;;;;;;;17.05;4.30;;;22.60;99.90;;;;;;5091183;28;20732;-88
2022/03/07 08:20:14;;;;;;;21.73;4.50;;;22.50;99.90;;;;;;5093243;28;20737;-87
2022/03/07 08:22:42;;;;;;;21.60;4.97;;;22.50;99.90;;;;;;5094425;28;20381;-83
2022/03/07 08:25:10;;;;;;;13.83;3.40;;;22.40;99.90;;;;;;5092812;28;20372;-87
2022/03/07 08:27:37;;;;;;;14.90;3.40;;;22.30;99.90;;;;;;5092746;28;20377;-88
2022/03/07 08:30:07;;;;;;;13.15;3.65;;;22.20;99.90;;;;;;5093115;28;20361;-86
2022/03/07 08:32:38;;;;;;;13.33;3.70;;;22.10;99.90;;;;;;5091148;28;20480;-86
2022/03/07 08:35:07;;;;;;;12.18;3.80;;;22.00;99.90;;;;;;5091967;28;20372;-88
2022/03/07 08:37:34;;;;;;;15.32;4.20;;;22.00;99.90;;;;;;5090594;28;20455;-87
2022/03/07 08:40:03;;;;;;;16.23;4.90;;;22.00;99.90;;;;;;5092325;28;20384;-87
2022/03/07 08:42:30;;;;;;;18.13;5.40;;;22.10;99.90;;;;;;5093157;28;20458;-87
2022/03/07 08:44:57;;;;;;;29.65;11.00;;;22.10;99.90;;;;;;5092217;28;20393;-88
2022/03/07 08:47:24;;;;;;;26.23;9.30;;;22.10;99.90;;;;;;5092113;28;20837;-89
2022/03/07 08:49:51;;;;;;;26.02;8.27;;;22.20;99.90;;;;;;5090531;28;20412;-88
2022/03/07 08:52:18;;;;;;;28.93;8.37;;;22.30;99.90;;;;;;5092093;28;20406;-89
2022/03/07 08:54:49;;;;;;;25.98;8.10;;;22.30;99.90;;;;;;5091537;28;20384;-89
2022/03/07 08:57:16;;;;;;;24.75;8.05;;;22.40;99.90;;;;;;5090424;28;20872;-88
2022/03/07 08:59:43;;;;;;;19.63;6.20;;;22.40;99.90;;;;;;5091669;28;20430;-88
2022/03/07 09:02:11;;;;;;;15.07;5.20;;;22.50;99.90;;;;;;5092165;28;20430;-90
2022/03/07 09:04:40;;;;;;;19.05;6.03;;;22.50;99.90;;;;;;5091076;28;20394;-89
2022/03/07 09:07:07;;;;;;;18.23;5.30;;;22.40;99.90;;;;;;5090715;28;20744;-87
2022/03/07 09:09:35;;;;;;;19.90;5.83;;;22.40;99.90;;;;;;5092994;28;20376;-89
2022/03/07 09:12:04;;;;;;;20.48;5.80;;;22.40;99.90;;;;;;5093055;28;20410;-88
2022/03/07 09:14:31;;;;;;;16.02;5.05;;;22.40;99.90;;;;;;5093131;28;20403;-88
2022/03/07 09:16:58;;;;;;;16.17;4.63;;;22.40;99.90;;;;;;5091576;28;20471;-88
2022/03/07 09:19:26;;;;;;;14.52;4.70;;;22.40;99.90;;;;;;5090985;28;20377;-88
2022/03/07 09:21:53;;;;;;;11.77;3.72;;;22.40;99.90;;;;;;5091842;28;20377;-88
2022/03/07 09:24:20;;;;;;;14.23;4.40;;;22.40;99.90;;;;;;5090635;28;20380;-89
2022/03/07 09:26:48;;;;;;;13.52;3.83;;;22.30;99.90;;;;;;5090224;28;20380;-90
2022/03/07 09:29:15;;;;;;;12.05;3.90;;;22.30;99.90;;;;;;5090357;28;20383;-88
2022/03/07 09:31:42;;;;;;;12.32;3.60;;;22.30;99.90;;;;;;5092120;28;20400;-89
2022/03/07 09:34:10;;;;;;;10.82;3.70;;;22.30;99.90;;;;;;5090268;28;20414;-89
2022/03/07 09:36:37;;;;;;;12.73;4.18;;;22.30;99.90;;;;;;5091609;28;20388;-88
2022/03/07 09:39:05;;;;;;;11.55;4.35;;;22.30;99.90;;;;;;5091349;28;20376;-89
2022/03/07 09:41:32;;;;;;;20.27;9.50;;;22.30;99.90;;;;;;5089985;28;20937;-89
2022/03/07 09:43:59;;;;;;;24.52;10.30;;;22.20;99.90;;;;;;5090167;28;20422;-89
2022/03/07 09:46:27;;;;;;;21.23;7.20;;;22.20;99.90;;;;;;5089899;28;20437;-89
2022/03/07 09:48:54;;;;;;;18.27;5.90;;;22.20;99.90;;;;;;5091163;28;20368;-87
2022/03/07 09:51:21;;;;;;;17.88;5.88;;;22.20;99.90;;;;;;5090787;28;20736;-86
2022/03/07 09:53:48;;;;;;;14.85;4.80;;;22.20;99.90;;;;;;5091093;28;20388;-88
2022/03/07 09:56:15;;;;;;;11.40;3.95;;;22.30;99.90;;;;;;5089737;28;20759;-88
2022/03/07 09:58:42;;;;;;;9.07;3.28;;;22.30;99.90;;;;;;5091456;28;20751;-88
2022/03/07 10:01:19;;;;;;;8.88;3.25;;;22.20;99.90;;;;;;5090483;28;20476;-88
2022/03/07 10:03:47;;;;;;;7.05;3.22;;;22.20;99.90;;;;;;5090583;28;20426;-87
2022/03/07 10:06:16;;;;;;;6.03;3.13;;;22.20;99.90;;;;;;5090567;28;20459;-89
2022/03/07 10:09:00;;;;;;;6.40;3.10;;;22.10;99.90;;;;;;5090759;28;20866;-88
2022/03/07 10:11:32;;;;;;;8.82;3.42;;;22.00;99.90;;;;;;5091050;28;20479;-86
2022/03/07 10:14:02;;;;;;;11.10;4.90;;;21.90;99.90;;;;;;5089156;28;20443;-86
2022/03/07 10:16:43;;;;;;;11.20;4.65;;;21.90;99.90;;;;;;5093349;28;20372;-88
2022/03/07 10:19:13;;;;;;;10.65;4.43;;;21.80;99.90;;;;;;5092440;28;20383;-88
2022/03/07 10:21:50;;;;;;;7.18;3.92;;;21.70;99.90;;;;;;5092793;28;20369;-88
2022/03/07 10:24:18;;;;;;;8.88;4.10;;;21.70;99.90;;;;;;5090541;28;20447;-86
2022/03/07 10:26:47;;;;;;;6.60;3.83;;;21.60;99.90;;;;;;5089809;28;20396;-88
2022/03/07 10:29:14;;;;;;;5.68;3.03;;;21.60;99.90;;;;;;5090839;28;20397;-88
2022/03/07 10:31:45;;;;;;;7.35;3.53;;;21.60;99.90;;;;;;5090375;28;20795;-87
2022/03/07 10:34:12;;;;;;;5.72;3.20;;;21.60;99.90;;;;;;5090883;28;20891;-87
2022/03/07 10:36:42;;;;;;;6.25;2.97;;;21.60;99.90;;;;;;5090850;28;20373;-87
2022/03/07 10:39:11;;;;;;;4.72;2.85;;;21.50;99.90;;;;;;5090186;28;20377;-90
2022/03/07 10:41:46;;;;;;;7.32;3.13;;;21.50;99.90;;;;;;5089120;28;20377;-88
2022/03/07 10:44:29;;;;;;;5.47;2.60;;;21.50;99.90;;;;;;5088838;28;20377;-91
2022/03/07 10:47:07;;;;;;;5.30;2.70;;;21.40;99.90;;;;;;5090441;28;20387;-90
2022/03/07 10:49:34;;;;;;;5.40;2.70;;;21.40;99.90;;;;;;5090271;28;20368;-91
2022/03/07 10:52:04;;;;;;;4.15;2.70;;;21.40;99.90;;;;;;5089990;28;20403;-89
2022/03/07 10:54:37;;;;;;;4.93;2.60;;;21.30;99.90;;;;;;5090003;28;20388;-89
2022/03/07 10:57:07;;;;;;;4.03;2.30;;;21.30;99.90;;;;;;5089148;28;20380;-87
2022/03/07 10:59:35;;;;;;;7.05;2.60;;;21.30;99.90;;;;;;5089917;28;20368;-89
2022/03/07 11:02:10;;;;;;;7.43;2.55;;;21.30;99.90;;;;;;5088764;28;20464;-89
2022/03/07 11:04:39;;;;;;;4.63;2.10;;;21.20;99.90;;;;;;5090498;28;20429;-89
2022/03/07 11:07:08;;;;;;;6.22;2.28;;;21.20;99.90;;;;;;5086354;28;20406;-88
2022/03/07 11:09:39;;;;;;;7.13;2.10;;;21.20;99.90;;;;;;5090605;28;20373;-90
2022/03/07 11:12:11;;;;;;;4.75;2.00;;;21.20;99.90;;;;;;5099215;28;20453;-89
2022/03/07 11:14:40;;;;;;;3.05;1.60;;;21.20;99.90;;;;;;5096555;28;20377;-89
2022/03/07 11:17:13;;;;;;;5.75;1.60;;;21.20;99.90;;;;;;5088136;28;20728;-88
2022/03/07 11:19:43;;;;;;;4.25;1.40;;;21.20;99.90;;;;;;5089943;28;20720;-91
2022/03/07 11:22:11;;;;;;;2.70;1.30;;;21.20;99.90;;;;;;5089337;28;20384;-89
2022/03/07 11:24:39;;;;;;;4.00;1.25;;;21.20;99.90;;;;;;5088575;28;20381;-87
2022/03/07 11:27:08;;;;;;;4.65;1.40;;;21.20;99.90;;;;;;5090238;28;20381;-89
2022/03/07 11:29:42;;;;;;;4.20;1.40;;;21.20;99.90;;;;;;5090492;28;20365;-87
2022/03/07 11:32:11;;;;;;;2.58;1.30;;;21.20;99.90;;;;;;5089314;28;20403;-87
2022/03/07 11:34:39;;;;;;;2.33;1.20;;;21.20;99.90;;;;;;5090064;28;20895;-88
2022/03/07 11:37:19;;;;;;;2.00;1.10;;;21.20;99.90;;;;;;5093448;28;20455;-87
2022/03/07 11:39:46;;;;;;;4.47;1.10;;;21.20;99.90;;;;;;5093530;28;20871;-88
2022/03/07 11:42:18;;;;;;;1.92;0.80;;;21.20;99.90;;;;;;5093424;28;20387;-87
2022/03/07 11:44:48;;;;;;;5.35;1.02;;;21.10;99.90;;;;;;5093090;28;20859;-87
2022/03/07 11:47:20;;;;;;;1.83;0.80;;;21.10;99.90;;;;;;5092956;28;20898;-87
2022/03/07 11:49:59;;;;;;;1.73;0.90;;;21.10;99.90;;;;;;5092916;28;20376;-87
2022/03/07 11:52:26;;;;;;;2.50;1.00;;;21.00;99.90;;;;;;5092916;28;20864;-87
2022/03/07 11:54:58;;;;;;;2.03;0.77;;;21.00;99.90;;;;;;5091219;28;20894;-88
2022/03/07 11:58:11;;;;;;;2.28;0.90;;;21.00;99.90;;;;;;5092773;28;20404;-86
2022/03/07 12:00:38;;;;;;;3.22;1.00;;;21.00;99.90;;;;;;5093175;28;20368;-88
2022/03/07 12:03:22;;;;;;;1.20;0.80;;;21.00;99.90;;;;;;5091461;28;20377;-88
2022/03/07 12:06:01;;;;;;;2.92;0.90;;;21.00;99.90;;;;;;5091102;28;20398;-88
2022/03/07 12:08:30;;;;;;;2.58;0.93;;;21.00;99.90;;;;;;5093031;28;20417;-86
2022/03/07 12:10:59;;;;;;;2.40;1.10;;;20.90;99.90;;;;;;5091129;28;20406;-85
2022/03/07 12:13:27;;;;;;;4.07;1.17;;;20.90;99.90;;;;;;5092614;28;20415;-86
2022/03/07 12:15:57;;;;;;;3.00;1.10;;;20.90;99.90;;;;;;5090995;28;20368;-86
2022/03/07 12:18:26;;;;;;;2.78;1.02;;;20.90;99.90;;;;;;5092784;28;20726;-87
2022/03/07 12:20:55;;;;;;;5.35;1.10;;;20.90;99.90;;;;;;5092482;28;20412;-89
2022/03/07 12:23:28;;;;;;;3.47;1.30;;;20.90;99.90;;;;;;5092405;28;20410;-88
2022/03/07 12:26:04;;;;;;;5.60;1.50;;;20.90;99.90;;;;;;5092252;28;20434;-87
2022/03/07 12:28:34;;;;;;;3.83;1.33;;;20.90;99.90;;;;;;5092658;28;20373;-87
2022/03/07 12:31:02;;;;;;;5.20;1.40;;;20.90;99.90;;;;;;5090931;28;20895;-88
2022/03/07 12:33:29;;;;;;;5.28;1.42;;;20.90;99.90;;;;;;5092875;28;20381;-87
2022/03/07 12:36:09;;;;;;;5.20;1.60;;;20.90;99.90;;;;;;5092337;28;20376;-87
2022/03/07 12:38:57;;;;;;;5.75;1.90;;;20.90;99.90;;;;;;5092559;28;20365;-89
2022/03/07 12:41:36;;;;;;;4.10;1.40;;;20.90;99.90;;;;;;5092424;28;20376;-87
2022/03/07 12:44:05;;;;;;;8.07;1.95;;;20.90;99.90;;;;;;5091125;28;20394;-87
2022/03/07 12:46:32;;;;;;;8.67;1.93;;;20.90;99.90;;;;;;5091421;28;20377;-89
2022/03/07 12:48:59;;;;;;;6.80;1.83;;;20.90;99.90;;;;;;5092239;28;20368;-87
2022/03/07 12:51:27;;;;;;;6.13;1.77;;;20.90;99.90;;;;;;5091982;28;20426;-89